createdAt,value
2022-08-05T00:02:27.601Z,52.47
2022-08-05T00:04:56.122Z,52.56
2022-08-05T00:07:59.047Z,52.61
2022-08-05T00:10:11.151Z,52.62
2022-08-05T00:12:56.086Z,52.55
2022-08-05T00:15:56.074Z,52.78
2022-08-05T00:18:21.296Z,52.95
2022-08-05T00:20:48.973Z,53.18
2022-08-05T00:23:16.046Z,52.86
2022-08-05T00:25:45.536Z,52.75
2022-08-05T00:28:13.439Z,52.71
2022-08-05T00:30:41.075Z,53.06
2022-08-05T00:33:15.718Z,52.81
2022-08-05T00:36:15.234Z,53.01
2022-08-05T00:38:45.377Z,53.23
2022-08-05T00:41:13.043Z,53.44
2022-08-05T00:43:47.018Z,53.85
2022-08-05T00:46:16.622Z,54.28
2022-08-05T00:48:50.732Z,54.35
2022-08-05T00:51:50.586Z,54.25
2022-08-05T00:54:06.125Z,54.53
2022-08-05T00:56:33.045Z,54.66
2022-08-05T00:59:00.192Z,54.52
2022-08-05T01:01:48.192Z,54.85
2022-08-05T01:04:15.719Z,54.71
2022-08-05T01:06:43.788Z,54.72
2022-08-05T01:09:15.552Z,54.42
2022-08-05T01:11:49.128Z,54.28
2022-08-05T01:14:28.426Z,54.24
2022-08-05T01:17:25.530Z,53.80
2022-08-05T01:20:01.356Z,53.76
2022-08-05T01:22:50.439Z,53.76
2022-08-05T01:25:53.260Z,54.10
2022-08-05T01:28:26.738Z,54.62
2022-08-05T01:31:04.871Z,55.00
2022-08-05T01:33:35.483Z,55.04
2022-08-05T01:36:07.214Z,55.33
2022-08-05T01:38:40.197Z,55.66
2022-08-05T01:41:08.165Z,56.05
2022-08-05T01:43:35.963Z,56.33
2022-08-05T01:46:07.160Z,56.39
2022-08-05T01:48:44.186Z,56.36
2022-08-05T01:51:13.096Z,56.64
2022-08-05T01:53:57.534Z,57.05
2022-08-05T01:58:13.193Z,57.16
2022-08-05T01:59:17.263Z,57.77
2022-08-05T02:01:47.762Z,57.84
2022-08-05T02:04:17.182Z,58.05
2022-08-05T02:06:45.016Z,57.92
2022-08-05T02:09:12.217Z,57.76
2022-08-05T02:11:52.688Z,57.67
2022-08-05T02:14:29.110Z,57.61
2022-08-05T02:17:16.819Z,57.59
2022-08-05T02:20:01.990Z,57.57
2022-08-05T02:22:31.772Z,57.90
2022-08-05T02:25:02.655Z,58.32
2022-08-05T02:27:57.957Z,58.20
2022-08-05T02:30:18.128Z,58.38
2022-08-05T02:32:48.193Z,58.24
2022-08-05T02:35:18.983Z,58.91
2022-08-05T02:37:54.096Z,58.89
2022-08-05T02:40:21.615Z,59.26
2022-08-05T02:42:52.978Z,59.35
2022-08-05T02:45:24.232Z,59.13
2022-08-05T02:47:58.645Z,59.17
2022-08-05T02:50:43.608Z,59.59
2022-08-05T02:53:15.946Z,59.88
2022-08-05T02:55:54.114Z,60.30
2022-08-05T02:58:23.162Z,61.06
2022-08-05T03:00:55.462Z,60.91
2022-08-05T03:03:23.524Z,60.66
2022-08-05T03:06:53.881Z,60.58
2022-08-05T03:08:39.054Z,60.29
2022-08-05T03:11:55.323Z,59.98
2022-08-05T03:14:08.068Z,59.60
2022-08-05T03:16:35.695Z,59.54
2022-08-05T03:19:04.260Z,59.37
2022-08-05T03:21:41.573Z,59.69
2022-08-05T03:24:17.097Z,59.50
2022-08-05T03:26:43.992Z,59.37
2022-08-05T03:29:17.312Z,59.48
2022-08-05T03:31:56.652Z,59.53
2022-08-05T03:34:25.687Z,59.56
2022-08-05T03:36:53.993Z,59.58
2022-08-05T03:39:27.148Z,59.40
2022-08-05T03:41:56.308Z,59.36
2022-08-05T03:44:23.648Z,59.32
2022-08-05T03:46:50.642Z,59.47
2022-08-05T03:49:17.584Z,59.50
2022-08-05T03:52:38.456Z,59.70
2022-08-05T03:56:05.686Z,59.65
2022-08-05T03:57:51.046Z,59.27
2022-08-05T04:00:18.165Z,59.10
2022-08-05T04:02:51.956Z,58.96
2022-08-05T04:05:19.932Z,58.60
2022-08-05T04:07:58.575Z,58.63
2022-08-05T04:10:32.028Z,58.58
2022-08-05T04:12:59.224Z,58.15
2022-08-05T04:15:32.799Z,57.93
2022-08-05T04:18:06.669Z,58.06
2022-08-05T04:20:34.395Z,58.97
2022-08-05T04:23:02.245Z,59.89
2022-08-05T04:25:49.425Z,61.05
2022-08-05T04:28:17.983Z,61.61
2022-08-05T04:30:45.619Z,62.64
2022-08-05T04:33:12.782Z,62.98
2022-08-05T04:36:16.356Z,62.82
2022-08-05T04:38:39.735Z,62.31
2022-08-05T04:41:07.595Z,62.32
2022-08-05T04:43:37.739Z,62.20
2022-08-05T04:46:07.543Z,62.21
2022-08-05T04:48:34.532Z,61.83
2022-08-05T04:51:03.500Z,61.65
2022-08-05T04:53:38.627Z,61.32
2022-08-05T04:56:32.957Z,60.79
2022-08-05T04:58:55.767Z,60.12
2022-08-05T05:01:33.569Z,59.52
2022-08-05T05:04:01.056Z,58.88
2022-08-05T05:06:39.125Z,58.50
2022-08-05T05:09:14.164Z,58.14
2022-08-05T05:11:55.496Z,58.55
2022-08-05T05:14:27.983Z,58.59
2022-08-05T05:17:02.081Z,59.17
2022-08-05T05:19:36.394Z,59.25
2022-08-05T05:22:24.136Z,58.79
2022-08-05T05:24:57.795Z,58.92
2022-08-05T05:27:44.730Z,58.62
2022-08-05T05:30:31.357Z,58.38
2022-08-05T05:33:09.422Z,58.14
2022-08-05T05:35:44.049Z,56.93
2022-08-05T05:38:12.875Z,56.82
2022-08-05T05:40:47.936Z,56.45
2022-08-05T05:43:22.209Z,56.61
2022-08-05T05:45:55.210Z,56.08
2022-08-05T05:48:27.364Z,56.22
2022-08-05T05:50:54.782Z,56.21
2022-08-05T05:53:22.203Z,56.03
2022-08-05T05:55:51.605Z,55.59
2022-08-05T05:58:30.349Z,55.41
2022-08-05T06:01:02.537Z,54.91
2022-08-05T06:04:00.816Z,55.10
2022-08-05T06:06:27.953Z,54.34
2022-08-05T06:09:00.028Z,53.65
2022-08-05T06:11:29.045Z,53.42
2022-08-05T06:13:56.257Z,52.97
2022-08-05T06:16:36.665Z,52.55
2022-08-05T06:19:05.626Z,52.45
2022-08-05T06:21:36.769Z,52.63
2022-08-05T06:24:11.701Z,52.73
2022-08-05T06:26:39.449Z,52.96
2022-08-05T06:29:43.142Z,52.61
2022-08-05T06:31:59.958Z,52.12
2022-08-05T06:34:27.848Z,51.87
2022-08-05T06:36:58.160Z,51.82
2022-08-05T06:39:27.020Z,51.54
2022-08-05T06:41:54.876Z,50.86
2022-08-05T06:44:22.010Z,50.56
2022-08-05T06:46:50.813Z,50.14
2022-08-05T06:49:18.814Z,49.84
2022-08-05T06:51:48.593Z,49.32
2022-08-05T06:54:18.151Z,49.72
2022-08-05T06:56:54.448Z,49.37
2022-08-05T06:59:22.064Z,48.69
2022-08-05T07:01:52.926Z,48.66
2022-08-05T07:04:20.301Z,48.32
2022-08-05T07:06:47.057Z,47.70
2022-08-05T07:09:17.446Z,47.68
2022-08-05T07:11:51.427Z,47.18
2022-08-05T07:14:37.263Z,46.98
2022-08-05T07:17:58.406Z,46.55
2022-08-05T07:22:42.168Z,45.91
2022-08-05T07:25:22.869Z,45.96
2022-08-05T07:28:01.480Z,45.52
2022-08-05T07:30:38.537Z,45.25
2022-08-05T07:33:09.753Z,45.44
2022-08-05T07:36:04.335Z,44.66
2022-08-05T07:38:34.420Z,44.60
2022-08-05T07:41:35.215Z,44.63
2022-08-05T07:43:57.196Z,43.37
2022-08-05T07:46:28.014Z,43.40
2022-08-05T07:49:02.125Z,43.31
2022-08-05T07:51:36.917Z,42.73
2022-08-05T07:54:05.677Z,42.89
2022-08-05T07:57:01.412Z,42.78
2022-08-05T07:59:31.057Z,41.77
2022-08-05T08:02:15.915Z,41.75
2022-08-05T08:04:45.290Z,41.09
2022-08-05T08:07:13.035Z,40.95
2022-08-05T08:09:40.078Z,40.68
2022-08-05T08:12:15.915Z,40.53
2022-08-05T08:14:54.241Z,40.23
2022-08-05T08:17:21.784Z,40.39
2022-08-05T08:20:10.331Z,39.90
2022-08-05T08:22:36.128Z,40.13
2022-08-05T08:25:03.918Z,39.63
2022-08-05T08:27:47.588Z,38.67
2022-08-05T08:30:30.093Z,38.24
2022-08-05T08:33:02.701Z,38.02
2022-08-05T08:35:35.255Z,38.26
2022-08-05T08:38:08.650Z,37.64
2022-08-05T08:40:50.452Z,36.98
2022-08-05T08:45:01.585Z,36.40
2022-08-05T08:46:09.993Z,35.63
2022-08-05T08:49:07.841Z,35.65
2022-08-05T08:52:03.798Z,35.37
2022-08-05T08:54:19.561Z,34.59
2022-08-05T08:56:47.767Z,34.23
2022-08-05T08:59:19.420Z,33.28
2022-08-05T09:01:57.438Z,33.92
2022-08-05T09:04:30.455Z,33.45
2022-08-05T09:06:57.658Z,32.13
2022-08-05T09:09:26.099Z,32.65
2022-08-05T09:12:15.304Z,30.65
2022-08-05T09:14:58.583Z,31.06
2022-08-05T09:17:40.606Z,31.24
2022-08-05T09:20:11.053Z,31.56
2022-08-05T09:22:56.397Z,30.76
2022-08-05T09:26:03.232Z,29.31
2022-08-05T09:28:21.545Z,29.09
2022-08-05T09:30:55.587Z,29.06
2022-08-05T09:33:23.710Z,28.38
2022-08-05T09:36:11.741Z,27.90
2022-08-05T09:38:56.792Z,28.57
2022-08-05T09:41:24.280Z,27.95
2022-08-05T09:43:52.811Z,27.97
2022-08-05T09:46:32.358Z,27.96
2022-08-05T09:49:07.820Z,27.48
2022-08-05T09:51:49.450Z,26.99
2022-08-05T09:54:21.429Z,26.81
2022-08-05T09:56:56.112Z,26.94
2022-08-05T09:59:27.701Z,27.03
2022-08-05T10:01:57.810Z,26.17
2022-08-05T10:04:35.471Z,25.68
2022-08-05T10:07:19.499Z,26.06
2022-08-05T10:10:15.285Z,26.36
2022-08-05T10:12:49.955Z,26.05
2022-08-05T10:15:22.952Z,25.04
2022-08-05T10:18:27.618Z,25.07
2022-08-05T10:20:57.434Z,25.31
2022-08-05T10:23:56.089Z,24.63
2022-08-05T10:26:31.690Z,23.80
2022-08-05T10:28:59.933Z,23.31
2022-08-05T10:32:54.908Z,24.11
2022-08-05T10:34:14.330Z,24.01
2022-08-05T10:36:44.307Z,23.78
2022-08-05T10:39:25.243Z,22.71
2022-08-05T10:42:15.759Z,22.14
2022-08-05T10:44:46.390Z,22.26
2022-08-05T10:47:26.930Z,21.50
2022-08-05T10:50:36.213Z,21.72
2022-08-05T10:53:01.704Z,22.30
2022-08-05T10:55:38.473Z,21.57
2022-08-05T10:58:20.741Z,21.35
2022-08-05T11:00:55.195Z,21.21
2022-08-05T11:03:29.958Z,20.37
2022-08-05T11:06:31.214Z,20.45
2022-08-05T11:09:39.255Z,21.13
2022-08-05T11:12:45.390Z,20.95
2022-08-05T11:16:01.193Z,20.36
2022-08-05T11:18:30.216Z,19.29
2022-08-05T11:21:00.806Z,19.13
2022-08-05T11:24:02.765Z,19.41
2022-08-05T11:26:33.383Z,19.04
2022-08-05T11:29:13.498Z,19.22
2022-08-05T11:31:58.023Z,19.83
2022-08-05T11:34:37.922Z,20.65
2022-08-05T11:38:14.259Z,21.78
2022-08-05T11:39:55.402Z,21.66
2022-08-05T11:42:28.561Z,20.86
2022-08-05T11:45:00.951Z,20.10
2022-08-05T11:47:49.294Z,19.77
2022-08-05T11:50:16.230Z,20.35
2022-08-05T11:52:44.135Z,20.33
2022-08-05T11:55:13.643Z,20.99
2022-08-05T11:58:09.742Z,21.13
2022-08-05T12:00:32.605Z,21.94
2022-08-05T12:03:29.412Z,21.54
2022-08-05T12:06:03.397Z,21.50
2022-08-05T12:08:39.908Z,21.31
2022-08-05T12:11:28.321Z,20.18
2022-08-05T12:14:08.644Z,19.09
2022-08-05T12:16:41.400Z,18.32
2022-08-05T12:20:27.526Z,18.33
2022-08-05T12:22:01.117Z,18.11
2022-08-05T12:24:28.333Z,18.21
2022-08-05T12:26:57.044Z,17.67
2022-08-05T12:29:25.730Z,17.45
2022-08-05T12:32:02.076Z,18.44
2022-08-05T12:34:31.475Z,19.34
2022-08-05T12:37:07.702Z,19.58
2022-08-05T12:39:37.118Z,19.82
2022-08-05T12:42:08.436Z,20.04
2022-08-05T12:44:35.648Z,19.93
2022-08-05T12:47:02.917Z,19.92
2022-08-05T12:50:03.483Z,19.78
2022-08-05T12:52:38.516Z,21.24
2022-08-05T12:55:26.543Z,20.73
2022-08-05T12:58:51.004Z,21.23
2022-08-05T13:02:02.062Z,19.91
2022-08-05T13:03:34.538Z,18.93
2022-08-05T13:06:12.863Z,19.05
2022-08-05T13:08:40.136Z,18.79
2022-08-05T13:11:08.143Z,18.44
2022-08-05T13:14:05.169Z,17.92
2022-08-05T13:16:27.757Z,17.49
2022-08-05T13:18:58.423Z,17.00
2022-08-05T13:21:28.612Z,16.92
2022-08-05T13:24:05.418Z,16.90
2022-08-05T13:26:32.528Z,16.72
2022-08-05T13:28:59.546Z,16.21
2022-08-05T13:32:03.311Z,15.87
2022-08-05T13:34:22.026Z,15.85
2022-08-05T13:36:52.625Z,16.26
2022-08-05T13:40:13.080Z,15.83
2022-08-05T13:42:06.550Z,15.98
2022-08-05T13:44:34.614Z,16.53
2022-08-05T13:47:08.630Z,16.23
2022-08-05T13:49:36.365Z,15.46
2022-08-05T13:52:16.806Z,15.62
2022-08-05T13:54:43.642Z,15.89
2022-08-05T13:57:20.753Z,15.07
2022-08-05T13:59:57.429Z,14.96
2022-08-05T14:02:29.698Z,14.59
2022-08-05T14:05:15.406Z,14.27
2022-08-05T14:08:03.233Z,14.50
2022-08-05T14:10:33.229Z,13.95
2022-08-05T14:13:00.272Z,14.58
2022-08-05T14:16:09.326Z,13.92
2022-08-05T14:18:18.467Z,14.36
2022-08-05T14:20:52.854Z,14.47
2022-08-05T14:23:24.620Z,13.93
2022-08-05T14:25:54.187Z,14.13
2022-08-05T14:28:27.083Z,14.02
2022-08-05T14:30:55.158Z,14.03
2022-08-05T14:33:22.652Z,14.36
2022-08-05T14:35:51.721Z,13.65
2022-08-05T14:38:32.426Z,14.12
2022-08-05T14:41:01.876Z,14.41
2022-08-05T14:43:58.767Z,14.56
2022-08-05T14:46:19.723Z,14.83
2022-08-05T14:48:49.937Z,15.51
2022-08-05T14:51:17.709Z,15.52
2022-08-05T14:53:45.328Z,15.06
2022-08-05T14:56:32.329Z,15.12
2022-08-05T14:58:59.101Z,14.91
2022-08-05T15:01:47.118Z,14.58
2022-08-05T15:04:14.846Z,14.29
2022-08-05T15:06:41.713Z,14.08
2022-08-05T15:09:16.122Z,13.84
2022-08-05T15:12:03.940Z,13.50
2022-08-05T15:14:34.854Z,13.64
2022-08-05T15:17:14.725Z,13.95
2022-08-05T15:19:57.006Z,14.12
2022-08-05T15:22:26.973Z,14.20
2022-08-05T15:24:55.422Z,13.74
2022-08-05T15:27:22.470Z,13.45
2022-08-05T15:29:54.250Z,13.74
2022-08-05T15:32:27.468Z,13.64
2022-08-05T15:34:56.686Z,13.49
2022-08-05T15:38:34.145Z,13.15
2022-08-05T15:41:01.990Z,13.35
2022-08-05T15:43:09.333Z,13.59
2022-08-05T15:45:45.661Z,13.75
2022-08-05T15:48:14.408Z,13.57
2022-08-05T15:50:41.681Z,13.50
2022-08-05T15:53:12.494Z,13.28
2022-08-05T15:56:02.350Z,13.16
2022-08-05T15:58:28.413Z,13.20
2022-08-05T16:01:11.549Z,13.06
2022-08-05T16:03:43.003Z,13.13
2022-08-05T16:06:11.523Z,13.31
2022-08-05T16:08:38.844Z,13.22
2022-08-05T16:11:07.168Z,13.63
2022-08-05T16:13:35.348Z,13.86
2022-08-05T16:16:05.588Z,12.78
2022-08-05T16:18:35.449Z,11.94
2022-08-05T16:21:20.579Z,11.45
2022-08-05T16:24:06.451Z,11.21
2022-08-05T16:26:53.890Z,11.18
2022-08-05T16:29:24.575Z,11.14
2022-08-05T16:31:57.136Z,11.90
2022-08-05T16:34:25.577Z,13.51
2022-08-05T16:36:53.234Z,13.41
2022-08-05T16:39:21.042Z,12.95
2022-08-05T16:42:14.699Z,13.76
2022-08-05T16:44:35.154Z,14.91
2022-08-05T16:47:04.690Z,15.76
2022-08-05T16:49:31.603Z,16.40
2022-08-05T16:51:58.514Z,16.57
2022-08-05T16:54:31.844Z,16.56
2022-08-05T16:56:59.819Z,15.39
2022-08-05T16:59:27.892Z,15.55
2022-08-05T17:01:57.646Z,15.72
2022-08-05T17:04:27.289Z,16.71
2022-08-05T17:06:55.653Z,17.32
2022-08-05T17:09:27.229Z,17.87
2022-08-05T17:11:59.209Z,18.23
2022-08-05T17:14:37.587Z,18.21
2022-08-05T17:17:14.184Z,17.84
2022-08-05T17:19:45.393Z,18.00
2022-08-05T17:22:17.895Z,19.16
2022-08-05T17:24:51.398Z,19.32
2022-08-05T17:27:25.443Z,19.90
2022-08-05T17:29:59.734Z,19.89
2022-08-05T17:32:29.446Z,19.94
2022-08-05T17:34:58.286Z,19.73
2022-08-05T17:37:40.865Z,20.28
2022-08-05T17:40:13.352Z,20.76
2022-08-05T17:42:41.345Z,21.54
2022-08-05T17:45:20.825Z,21.58
2022-08-05T17:47:53.943Z,22.18
2022-08-05T17:50:29.470Z,22.34
2022-08-05T17:53:01.225Z,22.54
2022-08-05T17:55:38.022Z,22.93
2022-08-05T17:58:09.414Z,23.12
2022-08-05T18:00:36.778Z,23.01
2022-08-05T18:03:11.800Z,23.49
2022-08-05T18:05:53.705Z,23.66
2022-08-05T18:08:21.340Z,23.77
2022-08-05T18:10:48.211Z,24.29
2022-08-05T18:13:15.551Z,25.27
2022-08-05T18:15:42.838Z,25.22
2022-08-05T18:18:11.712Z,25.79
2022-08-05T18:20:39.029Z,26.08
2022-08-05T18:23:11.342Z,26.62
2022-08-05T18:25:45.355Z,27.10
2022-08-05T18:28:16.648Z,26.89
2022-08-05T18:30:45.054Z,27.40
2022-08-05T18:33:13.447Z,28.60
2022-08-05T18:36:00.937Z,29.81
2022-08-05T18:38:28.662Z,30.16
2022-08-05T18:41:53.539Z,30.18
2022-08-05T18:43:43.250Z,30.37
2022-08-05T18:46:20.231Z,30.51
2022-08-05T18:48:51.850Z,30.51
2022-08-05T18:52:04.882Z,30.30
2022-08-05T18:54:28.465Z,30.25
2022-08-05T18:57:01.824Z,30.46
2022-08-05T18:59:43.729Z,30.79
2022-08-05T19:02:26.720Z,30.57
2022-08-05T19:05:02.272Z,30.64
2022-08-05T19:07:45.394Z,31.08
2022-08-05T19:10:14.380Z,30.88
2022-08-05T19:12:41.570Z,30.48
2022-08-05T19:15:10.612Z,30.26
2022-08-05T19:18:08.571Z,30.14
2022-08-05T19:20:37.050Z,30.24
2022-08-05T19:23:08.696Z,30.41
2022-08-05T19:26:02.136Z,30.38
2022-08-05T19:28:29.907Z,30.56
2022-08-05T19:30:57.239Z,31.53
2022-08-05T19:33:35.064Z,31.51
2022-08-05T19:36:06.132Z,32.40
2022-08-05T19:38:35.910Z,33.58
2022-08-05T19:41:06.988Z,33.70
2022-08-05T19:44:06.256Z,34.32
2022-08-05T19:46:30.639Z,34.01
2022-08-05T19:49:07.019Z,34.75
2022-08-05T19:52:13.316Z,34.70
2022-08-05T19:54:31.143Z,35.06
2022-08-05T19:57:08.569Z,35.20
2022-08-05T19:59:54.820Z,35.53
2022-08-05T20:02:28.148Z,35.88
2022-08-05T20:04:59.019Z,36.02
2022-08-05T20:07:46.987Z,35.67
2022-08-05T20:10:14.618Z,35.89
2022-08-05T20:12:47.984Z,35.75
2022-08-05T20:15:47.761Z,36.31
2022-08-05T20:18:10.873Z,36.60
2022-08-05T20:20:55.187Z,36.80
2022-08-05T20:23:22.989Z,37.07
2022-08-05T20:25:52.273Z,37.65
2022-08-05T20:28:20.731Z,37.61
2022-08-05T20:30:49.479Z,37.93
2022-08-05T20:33:16.408Z,37.90
2022-08-05T20:35:45.676Z,38.00
2022-08-05T20:38:19.991Z,38.09
2022-08-05T20:40:50.373Z,38.53
2022-08-05T20:43:17.611Z,38.52
2022-08-05T20:46:06.850Z,38.53
2022-08-05T20:48:35.742Z,38.60
2022-08-05T20:51:08.083Z,38.42
2022-08-05T20:53:36.477Z,38.58
2022-08-05T20:56:08.777Z,38.46
2022-08-05T20:58:36.998Z,38.36
2022-08-05T21:01:04.565Z,38.51
2022-08-05T21:03:34.348Z,38.50
2022-08-05T21:06:02.082Z,38.57
2022-08-05T21:08:41.611Z,38.82
2022-08-05T21:11:12.652Z,38.85
2022-08-05T21:13:55.852Z,39.11
2022-08-05T21:16:30.202Z,39.11
2022-08-05T21:19:01.702Z,39.22
2022-08-05T21:21:39.063Z,39.21
2022-08-05T21:24:13.015Z,39.33
2022-08-05T21:26:41.208Z,39.67
2022-08-05T21:29:10.142Z,39.86
2022-08-05T21:31:41.598Z,39.99
2022-08-05T21:34:10.512Z,39.96
2022-08-05T21:36:38.075Z,40.19
2022-08-05T21:39:05.091Z,40.21
2022-08-05T21:41:35.521Z,40.00
2022-08-05T21:44:04.310Z,39.98
2022-08-05T21:46:34.951Z,40.18
2022-08-05T21:49:02.609Z,40.42
2022-08-05T21:52:22.459Z,40.84
2022-08-05T21:54:27.875Z,40.60
2022-08-05T21:57:21.564Z,41.84
2022-08-05T22:00:02.130Z,42.73
2022-08-05T22:02:39.538Z,43.08
2022-08-05T22:05:09.299Z,43.62
2022-08-05T22:07:40.410Z,43.76
2022-08-05T22:10:27.116Z,43.54
2022-08-05T22:12:58.858Z,43.21
2022-08-05T22:16:00.887Z,43.76
2022-08-05T22:18:14.545Z,44.14
2022-08-05T22:20:41.788Z,44.31
2022-08-05T22:24:02.382Z,44.37
2022-08-05T22:26:34.760Z,44.35
2022-08-05T22:29:02.415Z,44.82
2022-08-05T22:31:30.022Z,44.53
2022-08-05T22:34:01.172Z,44.48
2022-08-05T22:36:28.514Z,44.46
2022-08-05T22:38:56.685Z,44.22
2022-08-05T22:42:05.044Z,44.13
2022-08-05T22:44:11.871Z,44.49
2022-08-05T22:46:40.709Z,44.08
2022-08-05T22:49:12.168Z,44.32
2022-08-05T22:52:05.388Z,44.17
2022-08-05T22:54:35.442Z,44.42
2022-08-05T22:57:02.843Z,44.36
2022-08-05T22:59:46.582Z,44.92
2022-08-05T23:02:18.195Z,45.60
2022-08-05T23:04:51.142Z,45.80
2022-08-05T23:07:18.935Z,46.09
2022-08-05T23:09:56.993Z,45.96
2022-08-05T23:12:28.879Z,45.90
2022-08-05T23:14:56.128Z,46.16
2022-08-05T23:17:35.005Z,46.23
2022-08-05T23:20:16.440Z,46.95
2022-08-05T23:22:47.536Z,47.00
2022-08-05T23:25:17.663Z,47.11
2022-08-05T23:28:03.989Z,46.87
2022-08-05T23:30:40.451Z,46.61
2022-08-05T23:33:16.435Z,47.55
2022-08-05T23:35:49.327Z,49.59
2022-08-05T23:38:16.412Z,49.65
2022-08-05T23:40:49.589Z,49.57
2022-08-05T23:43:25.700Z,49.53
2022-08-05T23:46:04.020Z,49.23
2022-08-05T23:48:30.894Z,49.41
2022-08-05T23:50:58.656Z,49.38
2022-08-05T23:53:28.345Z,49.48
2022-08-05T23:56:13.171Z,48.96
2022-08-05T23:58:46.929Z,48.97
